SEATTLE-TACOMA INTL

KSEA (SEA)
Seattle, Washington
Towered

Vatsim Metar:
KSEA 251753Z 02008KT 10SM SCT150 OVC200 12/04 A3018 RMK AO2 SLP226 T01220044 10122 20067 58011

No ATC Online

Traffic

Inbound:
Ident
Type
Name
ETA
Phase
CPZ5739
B737
Michael Grisham KPHX
Deplaning
ASA60
B739/L
Dale Wilkinson EGNM
Boarding
KAL215
B744
SEO DAE HO RKSI
00:16 Z
Cruse

Outbound:
Ident
Type
Name
Destination
Phase
ASA204
B738
Joshua Fortin KBOS
KSFO
Boarding
BAW48Q
H/B744/L
Timothy Barker KARR
EGLL
Climb